Time;durP1;ratioP1;P1;durP2;ratioP2;P2;SDS_P1;SDS_P2;PMS_P1;PMS_P2;Temp;Humidity;BMP_temperature;BMP_pressure;BME280_temperature;BME280_humidity;BME280_pressure;Samples;Min_cycle;Max_cycle;Signal;HPM_P1;HPM_P2
2022/05/26 00:02:15;;;;;;;1.97;1.70;;;;;;;13.98;84.65;101616.06;5011119;28;20678;-82
2022/05/26 00:04:40;;;;;;;3.83;1.73;;;;;;;13.99;84.79;101620.38;5010952;28;20025;-82
2022/05/26 00:07:07;;;;;;;2.67;1.63;;;;;;;13.98;84.57;101616.06;5010800;28;20079;-82
2022/05/26 00:09:33;;;;;;;4.53;1.93;;;;;;;13.94;84.73;101612.25;5010593;28;20649;-81
2022/05/26 00:11:58;;;;;;;4.15;2.08;;;;;;;13.92;85.08;101606.31;5010959;28;20056;-81
2022/05/26 00:14:23;;;;;;;4.50;2.43;;;;;;;13.91;85.22;101610.91;5010534;28;20045;-82
2022/05/26 00:16:49;;;;;;;4.40;2.30;;;;;;;13.90;85.60;101614.66;5010465;28;20025;-83
2022/05/26 00:19:17;;;;;;;4.87;2.33;;;;;;;13.92;85.99;101619.78;5010891;28;20026;-82
2022/05/26 00:21:43;;;;;;;3.15;2.08;;;;;;;13.93;85.95;101618.72;5010126;28;20038;-82
2022/05/26 00:24:09;;;;;;;3.70;2.00;;;;;;;13.90;86.09;101614.66;5010696;28;20046;-82
2022/05/26 00:26:34;;;;;;;2.80;1.90;;;;;;;13.92;85.79;101617.09;5010474;28;20073;-82
2022/05/26 00:28:59;;;;;;;4.55;1.92;;;;;;;13.94;86.18;101625.72;5010661;28;20103;-82
2022/05/26 00:31:25;;;;;;;7.10;2.27;;;;;;;13.94;86.23;101625.72;4992219;28;20041;-83
2022/05/26 00:33:50;;;;;;;3.80;2.00;;;;;;;13.92;86.17;101623.31;5010280;28;20404;-82
2022/05/26 00:36:37;;;;;;;5.17;2.17;;;;;;;13.95;86.48;101632.72;5010855;28;20022;-82
2022/05/26 00:39:04;;;;;;;6.05;2.60;;;;;;;13.94;86.62;101633.81;5010180;28;20436;-82
2022/05/26 00:41:29;;;;;;;5.07;1.85;;;;;;;13.96;85.95;101631.66;5011354;28;20399;-82
2022/05/26 00:43:54;;;;;;;6.57;2.47;;;;;;;13.96;86.54;101628.97;5011634;28;20022;-82
2022/05/26 00:46:35;;;;;;;4.73;2.30;;;;;;;13.96;86.29;101637.06;5010286;28;20030;-82
2022/05/26 00:49:02;;;;;;;6.13;2.58;;;;;;;13.94;86.23;101633.81;5010424;28;20041;-82
2022/05/26 00:51:30;;;;;;;5.40;2.40;;;;;;;13.95;86.62;101629.25;4993131;28;20057;-82
2022/05/26 00:53:59;;;;;;;7.00;2.17;;;;;;;13.95;86.55;101635.44;5010511;28;20025;-82
2022/05/26 00:57:10;;;;;;;8.05;2.70;;;;;;;13.95;86.50;101635.44;4990274;28;20039;-83
2022/05/26 00:59:44;;;;;;;5.00;2.60;;;;;;;13.93;86.81;101634.88;4986209;28;20057;-82
2022/05/26 01:02:11;;;;;;;8.90;2.83;;;;;;;13.91;86.82;101631.63;4990406;28;20180;-82
2022/05/26 01:04:48;;;;;;;6.72;2.60;;;;;;;13.93;86.63;101632.19;5000793;28;20068;-82
2022/05/26 01:07:23;;;;;;;7.00;3.00;;;;;;;13.90;87.49;101636.22;5010482;28;20476;-82
2022/05/26 01:09:48;;;;;;;6.53;2.67;;;;;;;13.93;87.18;101637.56;5009972;28;20311;-81
2022/05/26 01:12:13;;;;;;;8.40;2.97;;;;;;;13.90;87.67;101632.69;5009198;28;20376;-81
2022/05/26 01:14:52;;;;;;;9.47;2.80;;;;;;;13.90;87.29;101635.38;5009896;28;20029;-81
2022/05/26 01:17:46;;;;;;;6.82;2.60;;;;;;;13.89;87.74;101633.78;4992789;28;20038;-81
2022/05/26 01:20:27;;;;;;;7.10;2.70;;;;;;;13.89;87.42;101636.47;5009635;28;20037;-82
2022/05/26 01:23:49;;;;;;;10.83;2.60;;;;;;;13.91;87.75;101645.09;5009978;28;20656;-81
2022/05/26 01:26:47;;;;;;;10.48;2.95;;;;;;;13.90;87.43;101646.16;4948917;28;20079;-82
2022/05/26 01:29:13;;;;;;;6.43;3.00;;;;;;;13.90;87.98;101647.00;4948932;29;20023;-82
2022/05/26 01:31:43;;;;;;;8.43;3.00;;;;;;;13.91;87.53;101647.78;4996301;28;20038;-82
2022/05/26 01:34:43;;;;;;;12.95;3.38;;;;;;;13.90;87.85;101641.59;5009958;28;20034;-82
2022/05/26 01:37:43;;;;;;;7.10;2.97;;;;;;;13.90;87.21;101640.78;4976142;28;20116;-82
2022/05/26 01:40:30;;;;;;;7.45;3.17;;;;;;;13.91;87.46;101645.94;5009758;28;20041;-84
2022/05/26 01:43:10;;;;;;;10.85;3.42;;;;;;;13.92;87.92;101652.09;5009746;28;20034;-81
2022/05/26 01:46:02;;;;;;;10.40;3.50;;;;;;;13.91;87.83;101647.78;5009195;28;20654;-81
2022/05/26 01:49:03;;;;;;;13.60;4.15;;;;;;;13.89;88.34;101649.94;5009441;28;20534;-81
2022/05/26 01:51:37;;;;;;;11.60;3.63;;;;;;;13.93;87.81;101659.13;4978387;28;20049;-81
2022/05/26 01:54:21;;;;;;;9.67;3.83;;;;;;;13.91;88.22;101661.25;5009847;28;20029;-81
2022/05/26 01:57:02;;;;;;;10.67;4.37;;;;;;;13.91;88.21;101662.09;5011213;28;20289;-82
2022/05/26 01:59:39;;;;;;;12.65;4.45;;;;;;;13.90;87.91;101665.03;5012926;28;20042;-82
2022/05/26 02:02:14;;;;;;;10.85;4.40;;;;;;;13.88;88.40;101662.59;4995169;28;20624;-83
2022/05/26 02:04:44;;;;;;;13.48;4.45;;;;;;;13.91;88.48;101669.34;5012775;28;20105;-83
2022/05/26 02:07:21;;;;;;;11.00;5.00;;;;;;;13.88;88.60;101667.16;5013355;28;20033;-82
2022/05/26 02:09:49;;;;;;;11.75;5.05;;;;;;;13.89;88.35;101668.78;5012631;28;20030;-82
2022/05/26 02:12:33;;;;;;;10.40;4.53;;;;;;;13.86;88.53;101666.63;5012803;28;20119;-82
2022/05/26 02:15:15;;;;;;;11.45;4.97;;;;;;;13.87;88.26;101676.34;5012726;28;20022;-83
2022/05/26 02:17:47;;;;;;;13.75;5.20;;;;;;;13.84;88.59;101672.28;5012873;28;20108;-83
2022/05/26 02:20:28;;;;;;;13.00;5.40;;;;;;;13.87;89.01;101674.44;5012598;28;20030;-83
2022/05/26 02:23:03;;;;;;;15.20;5.93;;;;;;;13.84;89.28;101679.56;5012260;28;20795;-83
2022/05/26 02:25:29;;;;;;;15.88;6.13;;;;;;;13.86;88.79;101690.88;5012492;28;20034;-83
2022/05/26 02:27:56;;;;;;;14.82;6.35;;;;;;;13.83;89.20;101684.13;5012608;28;20041;-83
2022/05/26 02:30:26;;;;;;;18.77;7.40;;;;;;;13.84;89.38;101685.75;5012099;28;20087;-83
2022/05/26 02:32:54;;;;;;;17.00;6.38;;;;;;;13.84;89.27;101676.84;5012101;28;20034;-82
2022/05/26 02:35:24;;;;;;;12.63;6.75;;;;;;;13.84;88.66;101683.03;5012910;28;20562;-82
2022/05/26 02:37:56;;;;;;;15.23;6.53;;;;;;;13.83;89.14;101696.78;5012265;28;20171;-82
2022/05/26 02:40:22;;;;;;;12.23;6.53;;;;;;;13.79;89.05;101699.16;5012067;28;20029;-82
2022/05/26 02:42:51;;;;;;;16.13;7.07;;;;;;;13.76;89.53;101692.41;4994865;28;20338;-82
2022/05/26 02:45:25;;;;;;;17.35;6.70;;;;;;;13.74;89.63;101691.06;5011980;28;20066;-82
2022/05/26 02:48:05;;;;;;;18.65;7.15;;;;;;;13.69;90.02;101694.53;5011328;28;20481;-83
2022/05/26 02:50:45;;;;;;;16.75;6.93;;;;;;;13.68;89.58;101687.53;5012028;28;20033;-83
2022/05/26 02:53:30;;;;;;;16.13;6.43;;;;;;;13.65;89.61;101698.81;5012672;28;20118;-83
2022/05/26 02:56:14;;;;;;;16.05;6.90;;;;;;;13.63;89.62;101700.94;5011207;28;20104;-83
2022/05/26 02:59:16;;;;;;;19.17;6.87;;;;;;;13.58;89.92;101699.03;5012148;28;20040;-82
2022/05/26 03:02:23;;;;;;;20.40;6.60;;;;;;;13.60;90.06;101698.75;5011633;28;20668;-83
2022/05/26 03:05:21;;;;;;;16.77;7.00;;;;;;;13.57;89.94;101696.56;4995981;28;20045;-83
2022/05/26 03:07:52;;;;;;;17.83;6.53;;;;;;;13.60;89.98;101704.94;5010806;28;20198;-83
2022/05/26 03:10:22;;;;;;;17.77;6.85;;;;;;;13.58;90.16;101707.09;5011689;28;20030;-83
2022/05/26 03:12:48;;;;;;;17.02;7.22;;;;;;;13.56;90.53;101705.72;5011382;28;20029;-83
2022/05/26 03:15:13;;;;;;;20.10;7.27;;;;;;;13.53;90.66;101706.22;5003688;28;20037;-82
2022/05/26 03:17:39;;;;;;;17.20;7.13;;;;;;;13.53;91.02;101695.47;4994126;28;20543;-83
2022/05/26 03:20:04;;;;;;;20.20;7.43;;;;;;;13.52;91.27;101707.28;5011139;28;20415;-83
2022/05/26 03:22:30;;;;;;;23.87;7.47;;;;;;;13.45;90.79;101694.88;5011238;28;20549;-82
2022/05/26 03:24:55;;;;;;;17.47;7.53;;;;;;;13.42;91.37;101711.53;5011532;28;20330;-82
2022/05/26 03:27:21;;;;;;;22.57;7.47;;;;;;;13.38;91.73;101707.69;5011476;28;20035;-83
2022/05/26 03:29:46;;;;;;;22.37;7.90;;;;;;;13.39;92.11;101708.50;5011555;28;20034;-83
2022/05/26 03:32:12;;;;;;;20.77;7.95;;;;;;;13.35;91.74;101715.47;5010608;28;20473;-82
2022/05/26 03:42:51;;;;;;;23.50;8.18;;;;;;;13.35;92.29;101729.72;5011494;28;20125;-82
2022/05/26 03:45:20;;;;;;;21.93;7.63;;;;;;;13.36;92.38;101728.66;5011119;28;20113;-82
2022/05/26 03:47:46;;;;;;;27.70;8.07;;;;;;;13.35;92.22;101731.63;5010916;28;20596;-82
2022/05/26 03:50:14;;;;;;;25.08;7.82;;;;;;;13.33;92.60;101731.84;5010279;28;20133;-82
2022/05/26 03:52:39;;;;;;;24.33;7.53;;;;;;;13.34;92.37;101736.19;5011201;28;20042;-82
2022/05/26 03:55:05;;;;;;;28.23;7.77;;;;;;;13.34;92.72;101730.78;5010567;28;20371;-82
2022/05/26 03:57:31;;;;;;;22.73;7.33;;;;;;;13.35;92.27;101743.19;5010725;28;20037;-82
2022/05/26 03:59:57;;;;;;;19.52;7.05;;;;;;;13.33;92.41;101738.06;5011520;28;20026;-83
2022/05/26 04:02:23;;;;;;;24.73;7.35;;;;;;;13.34;92.43;101741.56;5011885;28;20030;-83
2022/05/26 04:04:48;;;;;;;23.60;7.43;;;;;;;13.29;92.45;101749.59;5010805;28;20041;-83
2022/05/26 04:07:14;;;;;;;26.52;6.53;;;;;;;13.19;92.30;101744.94;5010907;28;20469;-82
2022/05/26 04:09:40;;;;;;;20.77;6.10;;;;;;;13.13;93.15;101762.06;5010907;28;20029;-83
2022/05/26 04:12:08;;;;;;;22.95;7.00;;;;;;;13.11;93.56;101761.50;5010118;28;20513;-82
2022/05/26 04:14:34;;;;;;;25.38;6.82;;;;;;;13.09;93.71;101761.78;5010231;28;20026;-83
2022/05/26 04:17:03;;;;;;;23.65;6.82;;;;;;;13.11;93.59;101756.94;4992831;28;20400;-82
2022/05/26 04:19:28;;;;;;;21.63;5.97;;;;;;;13.20;93.08;101751.94;5009730;28;20038;-82
2022/05/26 04:24:38;;;;;;;27.48;6.05;;;;;;;13.38;92.70;101763.41;5010440;28;20037;-82
2022/05/26 04:27:04;;;;;;;29.77;6.53;;;;;;;13.43;92.37;101767.00;5010891;28;20022;-83
2022/05/26 04:29:31;;;;;;;24.40;5.60;;;;;;;13.46;92.13;101771.88;4992253;28;20689;-82
2022/05/26 04:31:56;;;;;;;25.02;5.65;;;;;;;13.51;91.73;101781.09;5009840;28;20382;-83
2022/05/26 04:34:22;;;;;;;24.20;6.80;;;;;;;13.53;91.76;101773.53;5010211;28;20034;-83
2022/05/26 04:36:47;;;;;;;26.17;6.00;;;;;;;13.53;91.82;101770.84;5010211;28;20061;-82
2022/05/26 04:39:14;;;;;;;21.37;5.40;;;;;;;13.58;91.40;101768.22;5010614;28;20088;-81
2022/05/26 04:41:47;;;;;;;25.47;5.23;;;;;;;13.63;91.49;101784.44;4991828;28;20037;-83
2022/05/26 04:44:15;;;;;;;25.03;6.47;;;;;;;13.69;91.20;101780.72;5010208;28;20273;-82
2022/05/26 04:46:45;;;;;;;24.52;5.75;;;;;;;13.73;90.82;101781.81;5009088;28;20509;-83
2022/05/26 04:49:12;;;;;;;21.50;5.38;;;;;;;13.77;89.74;101777.53;4993731;28;20092;-83
2022/05/26 04:51:38;;;;;;;24.75;5.47;;;;;;;13.88;89.96;101789.22;5009266;28;20108;-82
2022/05/26 04:54:05;;;;;;;18.42;5.18;;;;;;;13.96;89.31;101787.13;5010291;28;20477;-82
2022/05/26 04:56:31;;;;;;;17.77;5.47;;;;;;;14.00;88.70;101785.53;5009167;28;20616;-83
2022/05/26 04:58:57;;;;;;;24.83;5.40;;;;;;;14.06;89.04;101796.09;5009887;28;20048;-82
2022/05/26 05:01:22;;;;;;;19.70;5.18;;;;;;;14.40;88.07;101797.69;5009775;28;20061;-83
2022/05/26 05:03:48;;;;;;;23.20;5.13;;;;;;;14.60;86.21;101799.72;5009638;28;20080;-83
2022/05/26 05:06:16;;;;;;;21.60;5.03;;;;;;;14.63;86.15;101812.66;5009580;28;20084;-83
2022/05/26 05:08:42;;;;;;;30.27;5.85;;;;;;;14.59;85.70;101819.66;5009742;28;20101;-83
2022/05/26 05:11:09;;;;;;;22.40;4.53;;;;;;;14.63;85.96;101819.94;5009683;28;20034;-82
2022/05/26 05:13:34;;;;;;;25.20;5.00;;;;;;;14.66;85.74;101825.63;5009423;28;20273;-82
2022/05/26 05:16:04;;;;;;;24.25;5.00;;;;;;;14.68;85.76;101822.72;5009900;28;20451;-83
2022/05/26 05:18:29;;;;;;;22.95;5.22;;;;;;;14.70;85.42;101823.22;5009842;28;20335;-82
2022/05/26 05:20:59;;;;;;;22.07;5.37;;;;;;;14.70;85.67;101831.31;4991201;28;20033;-82
2022/05/26 05:23:26;;;;;;;20.10;4.82;;;;;;;14.78;85.41;101817.34;5009814;28;20077;-83
2022/05/26 05:25:54;;;;;;;23.42;5.45;;;;;;;14.88;85.41;101829.28;5009518;28;20080;-83
2022/05/26 05:28:26;;;;;;;23.38;5.20;;;;;;;15.02;84.51;101838.53;5009892;28;20032;-82
2022/05/26 05:30:56;;;;;;;22.02;5.35;;;;;;;15.07;83.50;101837.72;5009456;28;20037;-83
2022/05/26 05:33:31;;;;;;;21.35;5.00;;;;;;;15.09;83.46;101843.69;5013221;28;20168;-82
2022/05/26 05:36:07;;;;;;;22.60;5.35;;;;;;;15.12;83.49;101846.66;5013827;28;20025;-83
2022/05/26 05:38:35;;;;;;;20.42;5.80;;;;;;;15.10;83.19;101846.09;5013184;28;20030;-82
2022/05/26 05:41:02;;;;;;;24.42;5.45;;;;;;;15.14;83.35;101849.09;5013234;28;20056;-82
2022/05/26 05:43:29;;;;;;;23.07;5.30;;;;;;;15.25;82.86;101847.22;4979836;28;20049;-82
2022/05/26 05:45:54;;;;;;;24.57;5.30;;;;;;;15.41;82.56;101846.22;5013372;28;20284;-82
2022/05/26 05:48:21;;;;;;;18.98;4.85;;;;;;;15.58;81.33;101851.41;5013435;28;20512;-83
2022/05/26 05:50:46;;;;;;;25.38;5.55;;;;;;;15.73;80.61;101852.50;4995166;28;20057;-83
2022/05/26 05:53:12;;;;;;;23.57;5.07;;;;;;;15.92;80.17;101862.81;5013420;28;20030;-83
2022/05/26 05:55:37;;;;;;;22.40;4.93;;;;;;;16.09;79.49;101866.09;4995713;28;20121;-83
2022/05/26 05:58:07;;;;;;;20.10;5.23;;;;;;;16.12;78.72;101857.44;5013186;28;20292;-83
2022/05/26 06:00:32;;;;;;;22.27;4.80;;;;;;;16.22;78.31;101874.75;4995009;28;20038;-84
2022/05/26 06:02:57;;;;;;;21.67;5.10;;;;;;;16.27;78.12;101872.03;4995269;28;20181;-84
2022/05/26 06:05:24;;;;;;;21.23;4.80;;;;;;;16.49;77.69;101875.28;5012954;28;20113;-84
2022/05/26 06:07:49;;;;;;;18.67;5.20;;;;;;;16.53;76.89;101880.13;5012841;28;20026;-83
2022/05/26 06:10:14;;;;;;;20.93;5.17;;;;;;;16.47;76.20;101882.03;5012665;28;20040;-84
2022/05/26 06:12:40;;;;;;;18.57;4.90;;;;;;;16.50;76.79;101879.59;4996709;28;20069;-84
2022/05/26 06:15:06;;;;;;;22.87;5.50;;;;;;;16.71;76.34;101879.56;5013394;28;20656;-83
2022/05/26 06:17:31;;;;;;;20.43;5.10;;;;;;;16.94;75.30;101885.47;5014043;28;20124;-84
2022/05/26 06:19:57;;;;;;;23.33;5.70;;;;;;;16.92;74.95;101890.34;5013743;28;20794;-84
2022/05/26 06:22:22;;;;;;;19.80;5.40;;;;;;;16.91;75.83;101894.16;5012197;28;20030;-84
2022/05/26 06:24:49;;;;;;;19.63;5.43;;;;;;;16.93;75.48;101890.06;5013524;28;20742;-84
2022/05/26 06:30:02;;;;;;;18.08;5.20;;;;;;;16.82;74.31;101899.31;5013452;28;20053;-83
2022/05/26 06:37:57;;;;;;;20.77;6.47;;;;;;;17.04;76.15;101904.41;5013645;28;20041;-83
2022/05/26 06:40:24;;;;;;;22.80;6.13;;;;;;;17.40;73.88;101904.28;5012842;28;20026;-83
2022/05/26 06:42:49;;;;;;;22.08;6.32;;;;;;;17.60;72.93;101907.97;5012646;28;20117;-83
2022/05/26 06:45:18;;;;;;;23.70;6.43;;;;;;;17.54;72.36;101901.78;5012853;28;20065;-83
2022/05/26 06:47:43;;;;;;;20.73;6.93;;;;;;;17.48;71.65;101907.50;5012743;28;20029;-83
2022/05/26 06:50:10;;;;;;;24.23;6.60;;;;;;;17.56;72.27;101917.75;5013076;28;20028;-84
2022/05/26 06:52:35;;;;;;;20.80;6.70;;;;;;;17.48;71.37;101907.50;5012707;28;20040;-84
2022/05/26 06:55:04;;;;;;;20.83;7.30;;;;;;;17.59;71.39;101917.19;5012716;28;20030;-84
2022/05/26 06:57:29;;;;;;;18.35;6.70;;;;;;;17.65;70.67;101929.66;5012209;28;20030;-83
2022/05/26 06:59:55;;;;;;;19.47;7.27;;;;;;;17.78;69.77;101928.22;5012431;28;20037;-83
2022/05/26 07:02:20;;;;;;;17.58;6.10;;;;;;;17.92;69.01;101925.69;4994792;28;20512;-84
2022/05/26 07:04:47;;;;;;;22.63;6.60;;;;;;;18.19;68.58;101929.88;5011976;28;20121;-84
2022/05/26 07:07:14;;;;;;;21.35;7.00;;;;;;;18.14;67.64;101925.31;5012571;28;20473;-84
2022/05/26 07:09:41;;;;;;;22.15;6.85;;;;;;;18.11;67.46;101935.91;5012125;28;20508;-84
2022/05/26 07:12:06;;;;;;;19.60;6.63;;;;;;;18.27;66.76;101944.75;5012333;28;20062;-84
2022/05/26 07:14:32;;;;;;;22.23;7.97;;;;;;;18.24;66.54;101950.72;5011141;28;20432;-84
2022/05/26 07:16:57;;;;;;;20.95;7.30;;;;;;;18.21;67.39;101943.16;5012450;28;20057;-84
2022/05/26 07:19:24;;;;;;;19.43;7.37;;;;;;;18.29;67.31;101945.28;5012975;28;20034;-84
2022/05/26 07:21:49;;;;;;;20.05;6.90;;;;;;;18.59;67.08;101952.34;5013185;28;20469;-84
2022/05/26 07:24:24;;;;;;;19.50;7.17;;;;;;;18.61;66.64;101947.47;5013167;28;20041;-84
2022/05/26 07:26:49;;;;;;;16.48;6.47;;;;;;;18.75;65.96;101952.22;5012016;28;20549;-84
2022/05/26 07:29:16;;;;;;;19.90;5.90;;;;;;;19.02;64.50;101964.47;5010817;28;20033;-84
2022/05/26 07:31:42;;;;;;;10.98;6.20;;;;;;;19.22;63.35;101956.09;5010627;28;20128;-84
2022/05/26 07:34:07;;;;;;;18.85;6.10;;;;;;;19.18;62.23;101963.19;5012009;28;20109;-83
2022/05/26 07:42:14;;;;;;;15.73;5.78;;;;;;;18.53;63.96;101972.47;5011498;28;20048;-84
2022/05/26 07:44:43;;;;;;;14.98;6.38;;;;;;;18.57;64.85;101968.13;5011038;28;20540;-84
2022/05/26 07:47:09;;;;;;;19.23;6.50;;;;;;;18.61;64.70;101971.88;5011886;28;20030;-84
2022/05/26 07:49:41;;;;;;;14.00;6.23;;;;;;;18.55;64.31;101975.72;5011335;28;20315;-84
2022/05/26 07:52:08;;;;;;;14.93;6.28;;;;;;;18.57;64.14;101981.69;5010975;28;20298;-84
2022/05/26 07:54:34;;;;;;;14.85;6.40;;;;;;;18.72;62.95;101969.06;5011311;28;20042;-84
2022/05/26 07:57:01;;;;;;;15.77;6.13;;;;;;;18.69;62.44;101969.63;5012216;28;20029;-84
2022/05/26 07:59:28;;;;;;;13.27;5.90;;;;;;;18.90;62.68;101976.50;5012397;28;20033;-85
2022/05/26 08:01:53;;;;;;;11.80;5.43;;;;;;;19.24;63.35;101977.56;5012407;28;20087;-85
2022/05/26 08:04:19;;;;;;;13.90;5.80;;;;;;;19.64;61.67;101980.06;5012384;28;20288;-85
2022/05/26 08:17:05;;;;;;;13.57;5.55;;;;;;;18.86;62.51;101994.44;5815701;22;20045;-85
2022/05/26 08:19:31;;;;;;;16.92;6.07;;;;;;;18.67;63.36;101990.81;5049928;28;20466;-84
2022/05/26 08:21:57;;;;;;;15.37;5.73;;;;;;;18.44;63.34;101995.91;5049751;28;20082;-84
2022/05/26 08:24:24;;;;;;;13.40;5.40;;;;;;;18.86;64.25;101990.94;5032872;28;20323;-84
2022/05/26 08:26:49;;;;;;;14.05;5.72;;;;;;;19.66;61.62;101996.91;5030008;28;20029;-84
2022/05/26 08:29:15;;;;;;;13.10;5.30;;;;;;;20.04;58.22;101988.81;5030434;28;20460;-85
2022/05/26 08:31:40;;;;;;;15.03;5.60;;;;;;;19.88;58.72;101990.13;5029196;28;20068;-83
2022/05/26 08:34:05;;;;;;;12.07;5.40;;;;;;;19.76;59.14;101999.47;5030077;28;20036;-84
2022/05/26 08:36:33;;;;;;;13.10;5.33;;;;;;;19.66;58.83;101986.03;5029986;28;20823;-84
2022/05/26 08:38:58;;;;;;;12.10;4.60;;;;;;;20.00;57.16;102001.38;5030014;28;20386;-84
2022/05/26 08:41:28;;;;;;;13.37;5.00;;;;;;;20.29;57.18;101992.22;5029869;28;20080;-84
2022/05/26 08:44:03;;;;;;;10.18;4.78;;;;;;;20.56;56.02;101996.97;5029932;28;20052;-84
2022/05/26 08:46:37;;;;;;;12.15;4.75;;;;;;;20.61;56.19;102004.25;5029513;28;20056;-84
2022/05/26 08:49:08;;;;;;;10.93;4.33;;;;;;;20.43;55.59;102009.44;5012444;28;20481;-84
2022/05/26 08:51:47;;;;;;;12.70;4.67;;;;;;;20.35;56.92;102006.59;5028761;28;20371;-84
2022/05/26 08:54:25;;;;;;;13.27;4.13;;;;;;;20.37;56.57;102009.78;5011131;28;20051;-83
2022/05/26 08:56:50;;;;;;;13.30;3.90;;;;;;;20.22;55.49;102014.38;5029297;28;20512;-83
2022/05/26 08:59:18;;;;;;;10.77;4.30;;;;;;;19.99;55.08;102013.34;5029944;28;20025;-84
2022/05/26 09:01:44;;;;;;;12.63;4.97;;;;;;;19.93;55.54;102012.63;5028808;28;20580;-84
2022/05/26 09:04:10;;;;;;;9.77;4.95;;;;;;;19.88;55.57;102009.94;5023439;28;20056;-84
2022/05/26 09:15:02;;;;;;;14.55;9.90;;;;;;;20.20;57.83;102023.94;5030241;28;20048;-85
2022/05/26 09:17:29;;;;;;;15.05;8.23;;;;;;;20.27;57.43;102019.75;5028203;28;20033;-85
2022/05/26 09:19:55;;;;;;;13.55;5.82;;;;;;;20.48;55.17;102010.44;5029621;28;20406;-84
2022/05/26 09:22:30;;;;;;;16.15;9.15;;;;;;;20.70;55.03;102018.81;5029008;28;20104;-83
2022/05/26 09:24:57;;;;;;;16.83;12.32;;;;;;;20.75;54.65;102019.84;5017939;28;20036;-84
2022/05/26 09:27:26;;;;;;;17.55;12.38;;;;;;;20.99;55.91;102016.97;5028491;28;20108;-84
2022/05/26 09:29:51;;;;;;;17.00;11.27;;;;;;;21.35;54.83;102031.88;5028198;28;20021;-84
2022/05/26 09:32:17;;;;;;;16.50;10.60;;;;;;;21.24;53.13;102037.50;5029121;28;20052;-84
2022/05/26 09:35:07;;;;;;;13.98;9.82;;;;;;;21.06;55.27;102047.38;5029423;28;20022;-84
2022/05/26 09:37:42;;;;;;;15.75;9.05;;;;;;;20.88;53.87;102044.41;5028800;28;20030;-84
2022/05/26 09:40:19;;;;;;;12.07;7.35;;;;;;;21.05;52.24;102043.03;5029174;28;20504;-84
2022/05/26 09:43:06;;;;;;;9.13;5.90;;;;;;;21.47;52.68;102056.72;5028960;28;20040;-84
2022/05/26 09:45:44;;;;;;;12.47;8.30;;;;;;;21.78;52.26;102047.94;5028544;28;20667;-84
2022/05/26 09:48:24;;;;;;;16.80;8.15;;;;;;;21.90;52.17;102064.59;5029962;28;20013;-84
2022/05/26 09:50:53;;;;;;;10.00;7.45;;;;;;;22.19;50.15;102055.25;5007623;28;20532;-84
2022/05/26 09:53:33;;;;;;;12.50;9.00;;;;;;;22.62;48.63;102051.25;5009817;28;20485;-84
2022/05/26 09:55:59;;;;;;;14.05;8.43;;;;;;;22.86;48.50;102047.41;5009621;28;20156;-84
2022/05/26 09:58:39;;;;;;;15.43;7.50;;;;;;;23.33;48.29;102046.22;5009656;28;20026;-84
2022/05/26 10:01:31;;;;;;;10.27;7.05;;;;;;;23.21;48.01;102057.72;5007955;28;20061;-84
2022/05/26 10:04:12;;;;;;;9.85;6.53;;;;;;;22.96;45.68;102049.06;5009762;28;20545;-84
2022/05/26 10:07:06;;;;;;;11.13;7.43;;;;;;;22.44;47.47;102055.81;5015380;28;20133;-85
2022/05/26 10:10:01;;;;;;;13.48;8.38;;;;;;;21.82;49.65;102056.34;5028930;28;20056;-85
2022/05/26 10:12:35;;;;;;;13.38;9.43;;;;;;;22.05;50.81;102059.94;5028980;28;20026;-85
2022/05/26 10:15:15;;;;;;;12.55;8.13;;;;;;;22.44;48.15;102054.97;5029110;28;20064;-84
2022/05/26 10:17:55;;;;;;;11.37;6.80;;;;;;;22.87;48.86;102056.41;5030777;28;20409;-85
2022/05/26 10:20:53;;;;;;;12.90;6.47;;;;;;;22.90;46.43;102069.44;5032782;28;20748;-85
2022/05/26 10:23:55;;;;;;;8.23;7.10;;;;;;;22.56;46.77;102068.88;5011799;28;20042;-84
2022/05/26 10:26:26;;;;;;;10.63;7.45;;;;;;;22.44;47.79;102074.91;5033413;28;20022;-85
2022/05/26 10:29:03;;;;;;;13.63;7.20;;;;;;;22.72;46.86;102065.81;5033151;28;20026;-85
2022/05/26 10:31:45;;;;;;;9.85;6.28;;;;;;;23.09;46.28;102056.38;5033110;28;20033;-85
2022/05/26 10:34:37;;;;;;;9.30;6.13;;;;;;;23.27;46.07;102054.56;5038717;28;20018;-85
2022/05/26 10:37:14;;;;;;;8.88;6.50;;;;;;;23.26;46.75;102063.91;5040805;28;20033;-84
2022/05/26 10:40:00;;;;;;;12.23;7.97;;;;;;;23.13;45.89;102062.00;5033918;28;20033;-85
2022/05/26 10:42:31;;;;;;;12.13;6.78;;;;;;;23.30;46.40;102066.78;5033293;28;20046;-85
2022/05/26 10:45:32;;;;;;;11.20;6.67;;;;;;;23.62;45.12;102059.34;5032917;28;20044;-83
2022/05/26 10:48:00;;;;;;;12.27;7.10;;;;;;;23.65;43.23;102055.16;5033383;28;20980;-85
2022/05/26 10:50:28;;;;;;;9.25;7.15;;;;;;;23.76;43.87;102059.22;5032408;28;20548;-85
2022/05/26 10:53:23;;;;;;;11.02;7.30;;;;;;;23.87;45.01;102049.56;5031994;28;20107;-85
2022/05/26 10:56:10;;;;;;;9.70;6.78;;;;;;;24.10;43.77;102040.47;5033794;28;20040;-85
2022/05/26 10:58:42;;;;;;;10.32;5.93;;;;;;;24.10;43.26;102046.75;5019819;28;20021;-83
2022/05/26 11:01:35;;;;;;;7.60;5.93;;;;;;;24.47;43.35;102051.88;5037954;28;20504;-85
2022/05/26 11:04:21;;;;;;;10.88;5.93;;;;;;;24.53;41.84;102058.03;5017427;28;20121;-85
2022/05/26 11:06:50;;;;;;;9.00;5.75;;;;;;;24.72;41.36;102065.91;5016506;28;20021;-84
2022/05/26 11:09:32;;;;;;;8.65;5.75;;;;;;;24.68;40.53;102060.25;5017353;28;20079;-85
2022/05/26 11:12:07;;;;;;;7.33;5.37;;;;;;;24.41;41.98;102066.88;5025510;28;20508;-85
2022/05/26 11:17:50;;;;;;;10.93;5.25;;;;;;;23.58;44.27;102083.81;5031678;28;20048;-85
2022/05/26 11:20:28;;;;;;;9.23;4.82;;;;;;;23.66;44.97;102071.28;5031383;28;20422;-85
2022/05/26 11:23:02;;;;;;;11.63;5.28;;;;;;;23.73;44.87;102063.41;5030484;28;20481;-84
2022/05/26 11:25:30;;;;;;;7.40;5.10;;;;;;;23.71;43.97;102059.38;5030846;28;20029;-84
2022/05/26 11:28:10;;;;;;;8.30;4.95;;;;;;;23.47;44.41;102063.31;5030192;28;20041;-85
2022/05/26 11:36:47;;;;;;;8.68;5.70;;;;;;;22.87;46.13;102053.66;5031281;28;20178;-85
2022/05/26 11:39:22;;;;;;;7.93;5.43;;;;;;;22.94;44.67;102046.63;5014807;28;20030;-85
2022/05/26 11:41:54;;;;;;;7.33;4.87;;;;;;;23.24;44.92;102060.66;5009359;28;20351;-85
2022/05/26 11:44:30;;;;;;;10.45;5.97;;;;;;;23.24;43.51;102048.91;5010814;28;20096;-86
2022/05/26 11:47:21;;;;;;;9.57;6.32;;;;;;;23.35;43.05;102049.44;5013672;28;20037;-85
2022/05/26 11:49:51;;;;;;;10.05;5.95;;;;;;;23.24;43.61;102049.72;5031127;28;20029;-85
2022/05/26 11:52:27;;;;;;;8.77;5.80;;;;;;;22.95;44.17;102047.47;5012833;28;20037;-85
2022/05/26 11:54:52;;;;;;;11.93;5.57;;;;;;;22.41;45.00;102050.09;5030774;28;20546;-84
2022/05/26 11:57:38;;;;;;;8.80;5.90;;;;;;;22.18;46.42;102042.72;5031068;28;20041;-84
2022/05/26 12:00:21;;;;;;;9.25;5.50;;;;;;;22.28;46.43;102043.56;5030367;28;20037;-85
2022/05/26 12:02:52;;;;;;;9.35;6.40;;;;;;;22.68;45.38;102046.47;5030622;28;20381;-85
2022/05/26 12:05:55;;;;;;;13.55;5.28;;;;;;;23.67;44.36;102034.59;5011040;28;20026;-85
2022/05/26 12:08:37;;;;;;;9.23;5.80;;;;;;;24.06;43.33;102034.03;5004727;28;20037;-85
2022/05/26 12:11:07;;;;;;;9.43;6.10;;;;;;;24.28;41.42;102046.75;5010447;28;20292;-85
2022/05/26 12:13:34;;;;;;;8.00;5.22;;;;;;;24.41;42.23;102031.28;5010684;28;20037;-85
2022/05/26 12:16:09;;;;;;;11.55;6.18;;;;;;;24.31;42.63;102025.00;5007467;28;20033;-85
2022/05/26 12:18:42;;;;;;;7.68;4.80;;;;;;;24.69;40.98;102028.16;5029684;28;20042;-85
2022/05/26 12:21:34;;;;;;;9.43;4.85;;;;;;;24.78;42.01;102020.78;5030314;28;20021;-85
2022/05/26 12:24:31;;;;;;;11.75;4.85;;;;;;;25.00;41.43;102010.72;5030709;28;20033;-85
2022/05/26 12:26:58;;;;;;;7.25;4.03;;;;;;;25.08;39.68;102015.34;5030255;28;20044;-84
2022/05/26 12:29:42;;;;;;;12.32;3.97;;;;;;;24.69;40.79;102017.19;5030367;28;20033;-85
2022/05/26 12:32:13;;;;;;;10.93;3.78;;;;;;;24.64;40.79;102013.53;5029547;28;20113;-85
2022/05/26 12:34:55;;;;;;;9.13;3.40;;;;;;;25.02;42.37;102003.75;5011882;28;20036;-85
2022/05/26 12:38:23;;;;;;;6.77;3.57;;;;;;;25.47;41.49;102016.16;5029906;28;20311;-85